Latest Weather Observations for PORTABLE QFRL (Mt Fox)

IDQ60801

Issued at 11:02 pm EST Friday 15 November 2019 (issued every 10 minutes, with the page automatically refreshed every 10 minutes)

About weather observations | Map of weather stations | Latest weather observations for QLD | Other Formats
Station Details ID: 250076 Name: PORTABLE QFRL (MOUNT FOX) Lat: -18.82 Lon: 145.79 Height: 645.0 m
Data from the previous 72 hours. | See also: Recent months for locations in Queensland
Date/Time
EST
Temp
°C
App
Temp
°C
Dew
Point
°C
Rel
Hum
%
Delta-T
°C
Wind Press
QNH
hPa
Press
MSL
hPa
Rain since
9am
mm
Dir  Spd
km/h
Gust
km/h
Spd
kts
Gust
kts
15/10:50pm 20.0 22.0 17.8 87 1.4 NE 4 9 2 5 - - 0.0
15/10:40pm 19.9 22.3 17.9 88 1.3 E 2 4 1 2 - - 0.0
15/10:30pm 19.9 22.0 18.0 89 1.2 SW 4 6 2 3 - - 0.0
15/10:20pm 19.7 21.4 18.0 90 1.1 N 6 9 3 5 - - 0.0
15/10:10pm 19.7 20.4 18.0 90 1.1 NNE 11 15 6 8 - - 0.0
15/10:00pm 19.7 20.0 17.9 89 1.1 NNE 13 17 7 9 - - 0.0
15/09:50pm 19.8 20.5 18.0 89 1.1 NNE 11 17 6 9 - - 0.0
15/09:40pm 19.8 20.1 17.9 89 1.2 NNE 13 15 7 8 - - 0.0
15/09:30pm 19.8 20.1 17.9 89 1.2 NNE 13 15 7 8 - - 0.0
15/09:20pm 19.8 20.1 17.9 89 1.2 NNE 13 17 7 9 - - 0.0
15/09:10pm 19.9 20.5 17.8 88 1.3 NNE 11 17 6 9 - - 0.0
15/09:00pm 19.9 20.5 17.8 88 1.3 NNE 11 15 6 8 - - 0.0
15/08:50pm 19.9 20.2 17.8 88 1.3 NNE 13 17 7 9 - - 0.0
15/08:40pm 19.9 20.5 17.7 87 1.4 NNE 11 15 6 8 - - 0.0
15/08:30pm 19.9 20.1 17.6 86 1.5 NNE 13 17 7 9 - - 0.0
15/08:20pm 19.8 19.9 17.5 86 1.4 NNE 13 17 7 9 - - 0.0
15/08:10pm 19.9 20.0 17.4 85 1.6 NNE 13 20 7 11 - - 0.0
15/08:00pm 20.0 20.4 17.2 84 1.8 NNE 11 15 6 8 - - 0.0
15/07:50pm 20.1 20.7 16.8 81 2.1 NNE 9 15 5 8 - - 0.0
15/07:40pm 20.2 20.8 16.7 80 2.2 NNE 9 13 5 7 - - 0.0
15/07:30pm 20.3 20.4 16.6 79 2.3 NNE 11 15 6 8 - - 0.0
15/07:20pm 20.5 20.6 16.5 78 2.5 NNE 11 15 6 8 - - 0.0
15/07:10pm 20.6 20.6 16.3 76 2.7 NNE 11 17 6 9 - - 0.0
15/07:00pm 20.7 20.9 16.7 78 2.5 NE 11 15 6 8 - - 0.0
15/06:50pm 20.9 21.5 16.9 78 2.5 NE 9 13 5 7 - - 0.0
15/06:40pm 21.1 21.0 17.0 77 2.6 NE 13 15 7 8 - - 0.0
15/06:30pm 21.4 21.7 17.0 76 2.8 NE 11 15 6 8 - - 0.0
15/06:20pm 21.7 22.1 17.2 75 2.8 NE 11 15 6 8 - - 0.0
15/06:10pm 22.1 22.5 17.3 74 3.0 NE 11 15 6 8 - - 0.0
15/06:00pm 22.5 22.9 17.2 72 3.4 NE 11 15 6 8 - - 0.0
15/05:50pm 23.0 23.0 17.2 70 3.7 NE 13 17 7 9 - - 0.0
15/05:40pm 23.5 23.9 17.2 67 4.0 NE 11 13 6 7 - - 0.0
15/05:30pm 23.9 24.2 17.1 65 4.3 NE 11 17 6 9 - - 0.0
15/05:20pm 24.3 24.2 17.0 63 4.6 NE 13 17 7 9 - - 0.0
15/05:10pm 24.7 24.9 16.8 61 5.0 NE 11 15 6 8 - - 0.0
15/05:00pm 25.3 25.5 16.7 59 5.4 NE 11 15 6 8 - - 0.0
15/04:50pm 25.8 25.9 16.6 56 5.8 NE 11 15 6 8 - - 0.0
15/04:40pm 25.9 26.0 16.6 56 5.9 NE 11 15 6 8 - - 0.0
15/04:30pm 26.2 26.5 16.9 56 5.9 NE 11 15 6 8 - - 0.0
15/04:20pm 26.6 27.2 16.9 55 6.2 NE 9 19 5 10 - - 0.0
15/04:10pm 27.0 27.2 16.8 53 6.5 NE 11 15 6 8 - - 0.0
15/04:00pm 27.2 27.8 16.7 52 6.7 ENE 9 15 5 8 - - 0.0
15/03:50pm 27.4 28.0 16.7 52 6.8 NE 9 11 5 6 - - 0.0
15/03:40pm 27.2 27.0 16.8 53 6.6 NE 13 17 7 9 - - 0.0
15/03:30pm 28.2 28.9 17.0 50 7.2 NE 9 15 5 8 - - 0.0
15/03:20pm 28.1 28.4 17.1 51 7.1 NNE 11 17 6 9 - - 0.0
15/03:10pm 28.3 28.5 16.7 49 7.4 NE 11 17 6 9 - - 0.0
15/03:00pm 28.0 28.3 17.1 51 7.0 NNE 11 17 6 9 - - 0.0
15/02:50pm 28.3 28.6 16.9 50 7.3 NE 11 15 6 8 - - 0.0
15/02:40pm 28.6 29.2 16.7 48 7.6 NE 9 17 5 9 - - 0.0
15/02:30pm 28.4 28.7 17.1 50 7.3 NE 11 17 6 9 - - 0.0
15/02:20pm 28.3 28.6 17.0 50 7.3 NE 11 17 6 9 - - 0.0
15/02:10pm 28.1 28.7 16.9 50 7.2 NE 9 17 5 9 - - 0.0
15/02:00pm 29.0 29.7 17.0 48 7.7 NNE 9 13 5 7 - - 0.0
15/01:50pm 28.6 28.7 16.6 48 7.7 NE 11 15 6 8 - - 0.0
15/01:40pm 28.5 28.8 17.0 49 7.4 NE 11 17 6 9 - - 0.0
15/01:30pm 28.5 28.7 16.8 49 7.5 NE 11 17 6 9 - - 0.0
15/01:20pm 28.3 28.6 16.9 50 7.3 NE 11 15 6 8 - - 0.0
15/01:10pm 28.7 28.8 16.6 48 7.7 NE 11 13 6 7 - - 0.0
15/01:00pm 29.1 29.0 16.0 45 8.3 ENE 11 15 6 8 - - 0.0
15/12:50pm 28.8 28.4 16.1 46 8.1 NE 13 15 7 8 - - 0.0
15/12:40pm 28.9 28.1 15.0 42 8.7 NNE 13 19 7 10 - - 0.0
15/12:30pm 28.5 27.6 14.8 43 8.5 NE 13 17 7 9 - - 0.0
15/12:20pm 28.8 28.2 14.6 42 8.8 NE 11 17 6 9 - - 0.0
15/12:10pm 28.1 27.4 15.3 45 8.0 NE 13 15 7 8 - - 0.0
15/12:00pm 28.2 28.0 15.8 47 7.8 ENE 11 15 6 8 - - 0.0
15/11:50am 28.0 27.8 15.8 47 7.7 NNE 11 19 6 10 - - 0.0
15/11:40am 28.0 28.3 15.9 47 7.6 NE 9 15 5 8 - - 0.0
15/11:30am 27.9 28.3 16.4 49 7.3 NNE 9 13 5 7 - - 0.0
15/11:20am 27.5 28.0 16.6 51 6.9 NE 9 15 5 8 - - 0.0
15/11:10am 27.5 27.3 15.6 48 7.5 NE 11 13 6 7 - - 0.0
15/11:00am 27.4 27.6 15.8 49 7.3 ENE 9 13 5 7 - - 0.0
15/10:50am 26.8 27.2 16.2 52 6.7 NE 9 13 5 7 - - 0.0
15/10:40am 26.7 27.1 16.2 52 6.6 ENE 9 17 5 9 - - 0.0
15/10:30am 26.6 26.9 16.0 52 6.7 NE 9 13 5 7 - - 0.0
15/10:20am 26.5 26.9 16.3 53 6.4 ENE 9 13 5 7 - - 0.0
15/10:10am 26.1 26.7 16.8 56 5.9 ENE 9 15 5 8 - - 0.0
15/10:00am 25.7 26.0 16.1 55 6.0 NE 9 15 5 8 - - 0.0
15/09:50am 25.2 25.2 16.3 57 5.6 NE 11 15 6 8 - - 0.0
15/09:40am 25.3 25.4 16.4 57 5.6 ENE 11 13 6 7 - - 0.0
15/09:30am 25.3 26.1 16.3 57 5.7 ENE 7 13 4 7 - - 0.0
15/09:20am 24.5 24.6 16.5 61 5.0 NNE 11 17 6 9 - - 0.0
15/09:10am 24.1 24.8 17.0 64 4.5 NNE 9 15 5 8 - - 0.0
15/09:00am 23.7 24.0 17.1 66 4.2 NE 11 15 6 8 - - 0.0
15/08:50am 23.2 23.9 17.0 68 3.9 NNE 9 13 5 7 - - 0.0
15/08:40am 22.6 23.1 17.4 72 3.3 NE 11 15 6 8 - - 0.0
15/08:30am 23.0 23.8 17.4 70 3.6 NNE 9 17 5 9 - - 0.0
15/08:20am 21.9 22.7 17.2 74 3.0 NNE 9 17 5 9 - - 0.0
15/08:10am 21.7 22.3 17.7 78 2.5 NNE 11 15 6 8 - - 0.0
15/08:00am 21.5 21.7 17.6 78 2.5 NE 13 17 7 9 - - 0.0
15/07:50am 21.1 21.3 17.7 81 2.2 NE 13 17 7 9 - - 0.0
15/07:40am 21.0 21.5 17.5 80 2.2 NE 11 17 6 9 - - 0.0
15/07:30am 20.5 21.1 17.8 84 1.7 NNE 11 19 6 10 - - 0.0
15/07:20am 20.3 20.9 17.7 85 1.6 NNE 11 15 6 8 - - 0.0
15/07:10am 20.1 21.1 17.7 86 1.5 NE 9 15 5 8 - - 0.0
15/07:00am 20.0 21.3 17.5 85 1.6 NNE 7 15 4 8 - - 0.0
15/06:50am 19.9 21.4 17.5 86 1.5 NNE 6 9 3 5 - - 0.0
15/06:40am 19.7 21.0 17.5 87 1.4 NNE 7 11 4 6 - - 0.0
15/06:30am 19.4 20.3 17.5 89 1.2 NNE 9 13 5 7 - - 0.0
15/06:20am 19.2 20.0 17.4 89 1.1 NNE 9 13 5 7 - - 0.0
15/06:10am 19.0 19.8 17.4 90 1.0 NNE 9 11 5 6 - - 0.0
15/06:00am 18.9 19.7 17.4 91 0.9 NNE 9 11 5 6 - - 0.0
15/05:50am 18.8 20.0 17.4 91 0.9 NNE 7 11 4 6 - - 0.0
15/05:40am 18.8 20.2 17.4 91 0.9 NNE 6 13 3 7 - - 0.0
15/05:30am 18.9 20.4 17.5 92 0.9 NNE 6 11 3 6 - - 0.0
15/05:20am 18.9 20.2 17.6 92 0.8 NNE 7 9 4 5 - - 0.0
15/05:10am 18.9 19.8 17.6 92 0.8 NNE 9 13 5 7 - - 0.0
15/05:00am 19.0 19.9 17.6 92 0.9 NNE 9 15 5 8 - - 0.0
15/04:50am 19.0 19.6 17.7 92 0.8 NE 11 17 6 9 - - 0.0
15/04:40am 19.1 20.5 17.7 92 0.9 NNE 7 11 4 6 - - 0.0
15/04:30am 19.0 20.5 17.7 92 0.8 NNE 6 9 3 5 - - 0.0
15/04:20am 19.0 20.0 17.7 92 0.8 NNE 9 15 5 8 - - 0.0
15/04:10am 19.0 20.0 17.7 92 0.8 NNE 9 11 5 6 - - 0.0
15/04:00am 19.0 20.0 17.7 92 0.8 NNE 9 13 5 7 - - 0.0
15/03:50am 19.0 20.0 17.7 92 0.8 NNE 9 13 5 7 - - 0.0
15/03:40am 19.1 20.5 17.7 92 0.9 NNE 7 13 4 7 - - 0.0
15/03:30am 19.2 20.2 17.7 91 0.9 NNE 9 13 5 7 - - 0.0
15/03:20am 19.2 20.2 17.7 91 0.9 NNE 9 15 5 8 - - 0.0
15/03:10am 19.2 20.2 17.7 91 0.9 NNE 9 15 5 8 - - 0.0
15/03:00am 19.2 20.6 17.8 92 0.9 NE 7 15 4 8 - - 0.0
15/02:50am 19.3 20.7 17.9 92 0.9 NE 7 11 4 6 - - 0.0
15/02:40am 19.3 20.9 17.9 92 0.9 NNE 6 13 3 7 - - 0.0
15/02:30am 19.3 20.9 17.9 92 0.9 NE 6 9 3 5 - - 0.0
15/02:20am 19.3 20.7 17.9 92 0.9 N 7 9 4 5 - - 0.0
15/02:10am 19.3 20.9 17.9 92 0.9 NE 6 9 3 5 - - 0.0
15/02:00am 19.4 20.8 17.9 91 0.9 NNE 7 13 4 7 - - 0.0
15/01:50am 19.4 21.0 17.9 91 0.9 NNE 6 7 3 4 - - 0.0
15/01:40am 19.4 20.8 17.9 91 0.9 NE 7 11 4 6 - - 0.0
15/01:30am 19.4 20.5 17.9 91 0.9 NNE 9 9 5 5 - - 0.0
15/01:20am 19.5 21.0 18.0 91 1.0 NNE 7 11 4 6 - - 0.0
15/01:10am 19.5 21.0 18.0 91 1.0 NNE 7 11 4 6 - - 0.0
15/01:00am 19.4 20.9 18.0 92 0.9 NNE 7 11 4 6 - - 0.0
15/12:50am 19.4 20.9 18.0 92 0.9 NE 7 11 4 6 - - 0.0
15/12:40am 19.4 20.5 18.0 92 0.9 NNE 9 13 5 7 - - 0.0
15/12:30am 19.4 20.5 17.9 91 0.9 NNE 9 13 5 7 - - 0.0
15/12:20am 19.5 20.6 18.0 91 1.0 NNE 9 11 5 6 - - 0.0
15/12:10am 19.6 20.4 18.1 91 1.0 NNE 11 13 6 7 - - 0.0
15/12:00am 19.6 20.4 18.1 91 1.0 NNE 11 15 6 8 - - 0.0
 
Date/Time
EST
Temp
°C
App
Temp
°C
Dew
Point
°C
Rel
Hum
%
Delta-T
°C
Wind Press
QNH
hPa
Press
MSL
hPa
Rain since
9am
mm
Dir  Spd
km/h
Gust
km/h
Spd
kts
Gust
kts
14/11:50pm 19.6 20.4 18.1 91 1.0 NNE 11 13 6 7 - - 0.0
14/11:40pm 19.6 20.0 18.1 91 1.0 NNE 13 17 7 9 - - 0.0
14/11:30pm 19.6 20.4 18.2 92 0.9 NNE 11 15 6 8 - - 0.0
14/11:20pm 19.7 20.1 18.1 90 1.0 NNE 13 17 7 9 - - 0.0
14/11:10pm 19.7 20.5 18.1 90 1.0 NNE 11 13 6 7 - - 0.0
14/11:00pm 19.8 20.6 18.1 90 1.1 NNE 11 17 6 9 - - 0.0
14/10:50pm 19.9 19.9 18.2 90 1.1 NNE 15 17 8 9 - - 0.0
14/10:40pm 19.9 20.4 18.3 90 1.0 NNE 13 15 7 8 - - 0.0
14/10:30pm 20.0 20.9 18.4 90 1.0 NNE 11 15 6 8 - - 0.0
14/10:20pm 20.0 20.5 18.3 90 1.1 NNE 13 20 7 11 - - 0.0
14/10:10pm 20.1 20.2 18.3 89 1.1 NNE 15 19 8 10 - - 0.0
14/10:00pm 20.1 20.2 18.4 90 1.1 NNE 15 20 8 11 - - 0.0
14/09:50pm 20.1 20.6 18.4 90 1.1 NNE 13 17 7 9 - - 0.0
14/09:40pm 20.2 20.8 18.5 90 1.1 NNE 13 19 7 10 - - 0.0
14/09:30pm 20.2 20.8 18.5 90 1.1 NNE 13 17 7 9 - - 0.0
14/09:20pm 20.2 20.7 18.4 89 1.2 NNE 13 19 7 10 - - 0.0
14/09:10pm 20.3 20.8 18.4 89 1.2 NE 13 19 7 10 - - 0.0
14/09:00pm 20.4 20.9 18.3 88 1.3 NE 13 19 7 10 - - 0.0
14/08:50pm 20.3 21.2 18.3 88 1.3 NE 11 15 6 8 - - 0.0
14/08:40pm 20.3 21.1 18.2 88 1.3 NE 11 15 6 8 - - 0.0
14/08:30pm 20.4 21.2 18.1 87 1.5 NE 11 15 6 8 - - 0.0
14/08:20pm 20.4 22.0 18.2 87 1.4 NE 7 13 4 7 - - 0.0
14/08:10pm 20.4 21.5 18.1 87 1.5 NE 9 13 5 7 - - 0.0
14/08:00pm 20.5 21.3 18.1 86 1.5 NE 11 15 6 8 - - 0.0
14/07:50pm 20.5 21.3 18.1 86 1.5 NE 11 13 6 7 - - 0.0
14/07:40pm 20.7 21.1 18.1 85 1.7 NE 13 19 7 10 - - 0.0
14/07:30pm 20.8 21.9 18.1 84 1.7 ENE 9 13 5 7 - - 0.0
14/07:20pm 21.0 21.4 18.2 84 1.8 NE 13 17 7 9 - - 0.0
14/07:10pm 21.3 22.5 18.2 82 2.0 NE 9 15 5 8 - - 0.0
14/07:00pm 21.5 22.6 18.1 81 2.2 NE 9 13 5 7 - - 0.0
14/06:50pm 21.8 22.9 18.1 79 2.4 NE 9 13 5 7 - - 0.0
14/06:40pm 22.1 23.2 18.1 78 2.6 NE 9 11 5 6 - - 0.0
14/06:30pm 22.5 23.3 18.1 76 2.8 NE 11 13 6 7 - - 0.0
14/06:20pm 22.9 23.6 18.0 74 3.1 NE 11 15 6 8 - - 0.0
14/06:10pm 23.4 24.5 17.9 71 3.5 NE 9 15 5 8 - - 0.0
14/06:00pm 23.9 24.5 17.8 68 3.9 NE 11 15 6 8 - - 0.0
14/05:50pm 24.4 25.3 17.6 66 4.4 NE 9 15 5 8 - - 0.0
14/05:40pm 24.7 25.2 17.5 64 4.6 NE 11 20 6 11 - - 0.0
14/05:30pm 25.2 25.7 17.5 62 4.9 NE 11 17 6 9 - - 0.0
14/05:20pm 25.5 26.0 17.4 61 5.2 NE 11 19 6 10 - - 0.0
14/05:10pm 25.9 26.3 17.3 59 5.5 NE 11 20 6 11 - - 0.0
14/05:00pm 26.4 26.4 17.2 57 5.9 NE 13 17 7 9 - - 0.0
14/04:50pm 26.8 27.1 16.9 54 6.3 NE 11 15 6 8 - - 0.0
14/04:40pm 27.2 27.1 16.9 53 6.6 NE 13 17 7 9 - - 0.0
14/04:30pm 27.6 27.4 16.7 51 7.0 NE 13 19 7 10 - - 0.0
14/04:20pm 28.1 27.4 16.5 49 7.4 NE 15 19 8 10 - - 0.0
14/04:10pm 28.8 28.4 16.3 46 8.0 ENE 13 17 7 9 - - 0.0
14/04:00pm 29.4 29.3 15.9 44 8.6 NE 11 17 6 9 - - 0.0
14/03:50pm 30.0 29.8 15.7 42 9.1 NE 11 15 6 8 - - 0.0
14/03:40pm 30.0 29.3 15.5 41 9.2 NE 13 19 7 10 - - 0.0
14/03:30pm 30.7 30.5 15.8 40 9.5 NE 11 17 6 9 - - 0.0
14/03:20pm 30.9 30.2 15.3 38 9.9 NE 13 17 7 9 - - 0.0
14/03:10pm 30.9 29.9 14.5 37 10.2 NE 13 17 7 9 - - 0.0
14/03:00pm 31.1 30.3 13.9 35 10.7 NE 11 15 6 8 - - 0.0
14/02:50pm 31.4 29.9 13.0 32 11.3 NE 13 17 7 9 - - 0.0
14/02:40pm 31.4 30.5 14.8 36 10.4 NE 13 17 7 9 - - 0.0
14/02:30pm 32.0 30.9 14.3 34 11.1 NE 13 19 7 10 - - 0.0
14/02:20pm 32.1 31.5 14.7 35 11.0 NNE 11 20 6 11 - - 0.0
14/02:10pm 32.5 30.9 11.4 27 12.7 NE 11 17 6 9 - - 0.0
14/02:00pm 32.6 30.6 10.3 25 13.2 NE 11 17 6 9 - - 0.0
14/01:50pm 32.2 30.1 9.9 25 13.1 NNE 11 15 6 8 - - 0.0
14/01:40pm 32.3 30.5 10.8 26 12.8 NE 11 15 6 8 - - 0.0
14/01:30pm 32.3 30.7 10.1 25 13.1 NNE 9 17 5 9 - - 0.0
14/01:20pm 32.4 30.0 8.6 23 13.7 NE 11 15 6 8 - - 0.0
14/01:10pm 32.3 30.2 8.3 22 13.7 NE 9 11 5 6 - - 0.0
14/01:00pm 32.5 30.1 7.0 20 14.3 NE 9 13 5 7 - - 0.0
14/12:50pm 32.2 30.1 8.3 22 13.7 NE 9 17 5 9 - - 0.0
14/12:40pm 32.3 29.6 5.5 18 14.7 ENE 9 13 5 7 - - 0.0
14/12:30pm 32.1 28.7 2.1 15 15.5 ENE 9 13 5 7 - - 0.0
14/12:20pm 32.1 29.9 8.0 22 13.7 NE 9 13 5 7 - - 0.0
14/12:10pm 32.2 30.6 8.6 23 13.6 NE 7 15 4 8 - - 0.0
14/12:00pm 31.9 30.5 11.0 27 12.4 ENE 9 13 5 7 - - 0.0
14/11:50am 32.2 31.5 12.0 29 12.2 ENE 7 9 4 5 - - 0.0
14/11:40am 32.1 30.8 11.1 27 12.5 ENE 9 13 5 7 - - 0.0
14/11:30am 32.2 31.3 11.4 28 12.5 NE 7 11 4 6 - - 0.0
14/11:20am 32.3 30.7 8.6 23 13.6 ENE 7 11 4 6 - - 0.0
14/11:10am 31.9 30.4 9.1 24 13.2 NE 7 11 4 6 - - 0.0
14/11:00am 31.3 30.0 9.8 26 12.5 N 7 15 4 8 - - 0.0
14/10:50am 31.3 29.9 8.7 24 12.9 NW 6 9 3 5 - - 0.0
14/10:40am 31.0 29.2 8.0 24 13.0 N 7 11 4 6 - - 0.0
14/10:30am 30.5 29.4 8.5 25 12.5 NNW 4 7 2 4 - - 0.0
14/10:20am 30.3 28.8 6.6 22 13.1 N 4 7 2 4 - - 0.0
14/10:10am 30.0 29.2 9.7 28 11.7 NNE 4 9 2 5 - - 0.0
14/10:00am 29.5 28.0 9.1 28 11.7 NNE 7 9 4 5 - - 0.0
14/09:50am 29.2 27.9 9.2 28 11.4 N 6 9 3 5 - - 0.0
14/09:40am 28.8 27.9 10.7 32 10.6 NNW 6 11 3 6 - - 0.0
14/09:30am 28.4 28.1 11.3 34 10.1 NNE 4 6 2 3 - - 0.0
14/09:20am 27.7 27.4 11.4 36 9.6 NNW 4 9 2 5 - - 0.0
14/09:10am 27.4 28.1 13.3 41 8.5 NNE 2 6 1 3 - - 0.0
14/09:00am 26.9 27.9 14.3 46 7.7 WNW 2 4 1 2 - - 0.0
14/08:50am 26.4 27.2 14.7 48 7.2 WNW 4 7 2 4 - - 0.0
14/08:40am 25.4 26.4 15.4 54 6.2 WNW 4 6 2 3 - - 0.0
14/08:30am 24.3 25.4 15.7 58 5.3 NE 4 6 2 3 - - 0.0
14/08:20am 23.9 25.5 16.8 64 4.5 NNE 4 6 2 3 - - 0.0
14/08:10am 23.9 26.0 17.1 65 4.3 NW 2 4 1 2 - - 0.0
14/08:00am 23.1 25.1 17.0 68 3.9 SW 2 6 1 3 - - 0.0
14/07:50am 21.9 23.9 17.0 73 3.1 ESE 2 4 1 2 - - 0.0
14/07:40am 20.9 22.3 17.3 80 2.3 NNW 6 6 3 3 - - 0.0
14/07:30am 20.4 22.1 17.1 81 2.1 W 4 6 2 3 - - 0.0
14/07:20am 20.0 21.8 17.5 85 1.6 WNW 4 6 2 3 - - 0.0
14/07:10am 19.7 22.4 17.8 89 1.2 CALM 0 2 0 1 - - 0.0
14/07:00am 19.4 21.7 17.8 90 1.0 N 2 4 1 2 - - 0.0
14/06:50am 19.2 22.0 17.9 92 0.8 CALM 0 2 0 1 - - 0.0
14/06:40am 18.9 21.2 17.8 93 0.7 NNE 2 6 1 3 - - 0.0
14/06:30am 18.8 21.1 17.8 94 0.6 N 2 6 1 3 - - 0.0
14/06:20am 18.8 20.8 17.9 94 0.6 NNE 4 6 2 3 - - 0.0
14/06:10am 18.7 21.1 18.0 96 0.4 NE 2 4 1 2 - - 0.0
14/06:00am 18.6 21.0 17.9 96 0.4 ENE 2 6 1 3 - - 0.0
14/05:50am 18.6 20.9 17.8 95 0.5 E 2 4 1 2 - - 0.0
14/05:40am 18.5 20.8 17.8 96 0.4 E 2 4 1 2 - - 0.0
14/05:30am 18.5 20.8 17.8 96 0.4 NNE 2 4 1 2 - - 0.0
14/05:20am 18.5 20.5 17.8 96 0.4 NE 4 7 2 4 - - 0.0
14/05:10am 18.5 21.2 17.7 95 0.5 CALM 0 4 0 2 - - 0.0
14/05:00am 18.4 20.7 17.7 96 0.4 NNE 2 6 1 3 - - 0.0
14/04:50am 18.5 20.4 17.7 95 0.5 NNE 4 7 2 4 - - 0.0
14/04:40am 18.5 20.8 17.7 95 0.5 NNE 2 4 1 2 - - 0.0
14/04:30am 18.6 20.9 17.8 95 0.5 E 2 4 1 2 - - 0.0
14/04:20am 18.5 20.5 17.8 96 0.4 NE 4 7 2 4 - - 0.0
14/04:10am 18.5 20.8 17.7 95 0.5 NNE 2 4 1 2 - - 0.0
14/04:00am 18.4 20.7 17.7 96 0.4 NE 2 2 1 1 - - 0.0
14/03:50am 18.4 21.0 17.6 95 0.5 CALM 0 2 0 1 - - 0.0
14/03:40am 18.3 20.6 17.6 96 0.4 ENE 2 7 1 4 - - 0.0
14/03:30am 18.2 20.0 17.4 95 0.5 NE 4 6 2 3 - - 0.0
14/03:20am 18.1 20.2 17.3 95 0.5 NE 2 4 1 2 - - 0.0
14/03:10am 18.1 20.2 17.1 94 0.6 ENE 2 2 1 1 - - 0.0
14/03:00am 18.1 20.2 17.2 94 0.6 NNE 2 4 1 2 - - 0.0
14/02:50am 18.2 20.7 17.3 94 0.6 CALM 0 2 0 1 - - 0.0
14/02:40am 18.3 20.5 17.4 94 0.6 NE 2 4 1 2 - - 0.0
14/02:30am 18.4 20.6 17.5 94 0.6 NE 2 4 1 2 - - 0.0
14/02:20am 18.5 20.4 17.6 94 0.6 NE 4 6 2 3 - - 0.0
14/02:10am 18.5 20.4 17.6 94 0.6 NE 4 6 2 3 - - 0.0
14/02:00am 18.6 20.9 17.7 94 0.6 NE 2 6 1 3 - - 0.0
14/01:50am 18.6 20.6 17.8 95 0.5 NE 4 7 2 4 - - 0.0
14/01:40am 18.6 20.9 17.8 95 0.5 NNE 2 6 1 3 - - 0.0
14/01:30am 18.7 20.7 17.8 94 0.6 NE 4 7 2 4 - - 0.0
14/01:20am 18.8 20.4 17.9 94 0.6 NE 6 9 3 5 - - 0.0
14/01:10am 18.9 20.6 18.0 94 0.6 NE 6 9 3 5 - - 0.0
14/01:00am 19.0 21.1 18.0 94 0.6 NE 4 9 2 5 - - 0.0
14/12:50am 19.0 20.7 18.0 94 0.6 NE 6 9 3 5 - - 0.0
14/12:40am 19.0 20.7 18.1 94 0.6 NE 6 9 3 5 - - 0.0
14/12:30am 19.1 20.8 18.0 93 0.7 NNE 6 9 3 5 - - 0.0
14/12:20am 19.1 20.8 18.0 93 0.7 NNE 6 9 3 5 - - 0.0
14/12:10am 19.1 20.6 18.0 93 0.7 NNE 7 9 4 5 - - 0.0
14/12:00am 19.2 20.6 17.9 92 0.8 N 7 9 4 5 - - 0.0
 
Date/Time
EST
Temp
°C
App
Temp
°C
Dew
Point
°C
Rel
Hum
%
Delta-T
°C
Wind Press
QNH
hPa
Press
MSL
hPa
Rain since
9am
mm
Dir  Spd
km/h
Gust
km/h
Spd
kts
Gust
kts
13/11:50pm 19.2 20.6 17.8 92 0.9 NNE 7 13 4 7 - - 0.0
13/11:40pm 19.2 20.8 17.9 92 0.8 NNE 6 11 3 6 - - 0.0
13/11:30pm 19.2 20.6 17.9 92 0.8 NNE 7 13 4 7 - - 0.0
13/11:20pm 19.3 20.8 18.0 92 0.8 NNE 7 9 4 5 - - 0.0
13/11:10pm 19.3 21.0 18.0 92 0.8 NNE 6 11 3 6 - - 0.0
13/11:00pm 19.4 20.9 18.0 92 0.9 NNE 7 13 4 7 - - 0.0
13/10:50pm 19.5 21.1 17.9 90 1.0 NNE 6 9 3 5 - - 0.0
13/10:40pm 19.5 20.9 17.9 90 1.0 NE 7 11 4 6 - - 0.0
13/10:30pm 19.6 21.2 17.9 90 1.1 NNE 6 9 3 5 - - 0.0
13/10:20pm 19.6 21.3 18.0 90 1.0 NNE 6 7 3 4 - - 0.0
13/10:10pm 19.6 21.1 18.0 90 1.0 NE 7 11 4 6 - - 0.0
13/10:00pm 19.6 21.1 18.1 91 1.0 NE 7 11 4 6 - - 0.0
13/09:50pm 19.7 21.4 18.1 90 1.0 NE 6 9 3 5 - - 0.0
13/09:40pm 19.7 21.4 18.1 90 1.0 NNE 6 13 3 7 - - 0.0
13/09:30pm 19.8 21.5 18.1 90 1.1 NE 6 9 3 5 - - 0.0
13/09:20pm 19.9 21.4 18.1 89 1.1 NNE 7 11 4 6 - - 0.0
13/09:10pm 20.0 22.1 18.0 88 1.3 NE 4 9 2 5 - - 0.0
13/09:00pm 20.0 21.7 18.0 88 1.3 NE 6 9 3 5 - - 0.0
13/08:50pm 20.1 21.6 18.0 88 1.3 NE 7 13 4 7 - - 0.0
13/08:40pm 20.2 21.6 17.9 87 1.5 NE 7 11 4 6 - - 0.0
13/08:30pm 20.3 22.3 17.9 86 1.5 NE 4 7 2 4 - - 0.0
13/08:20pm 20.5 22.5 17.8 84 1.7 NE 4 7 2 4 - - 0.0
13/08:10pm 20.6 22.6 17.9 84 1.7 NNE 4 7 2 4 - - 0.0
13/08:00pm 20.8 22.2 17.9 83 1.8 NE 7 9 4 5 - - 0.0
13/07:50pm 21.0 22.4 17.9 82 2.0 NE 7 13 4 7 - - 0.0
13/07:40pm 21.3 22.8 18.0 81 2.1 NE 7 11 4 6 - - 0.0
13/07:30pm 21.7 23.3 17.8 78 2.5 NE 6 9 3 5 - - 0.0
13/07:20pm 22.1 23.5 17.4 74 3.0 NE 6 11 3 6 - - 0.0
13/07:10pm 22.6 23.9 17.2 71 3.4 NE 6 9 3 5 - - 0.0
13/07:00pm 23.1 24.6 16.6 67 4.1 NE 4 7 2 4 - - 0.0
13/06:50pm 23.6 24.6 16.4 64 4.5 NE 6 7 3 4 - - 0.0
13/06:40pm 24.0 24.8 15.9 60 5.0 NE 6 9 3 5 - - 0.0
13/06:30pm 24.5 25.2 15.5 57 5.6 NE 6 7 3 4 - - 0.0
13/06:20pm 24.9 25.5 15.2 54 6.0 NE 6 11 3 6 - - 0.0
13/06:10pm 25.3 25.9 15.3 54 6.2 NE 6 7 3 4 - - 0.0
13/06:00pm 25.8 26.9 15.6 53 6.4 NE 4 9 2 5 - - 0.0
13/05:50pm 26.2 26.3 15.6 52 6.6 NE 9 13 5 7 - - 0.0
13/05:40pm 26.7 27.0 15.9 51 6.8 NNE 9 13 5 7 - - 0.0
13/05:30pm 27.2 27.5 16.0 50 7.1 NE 9 11 5 6 - - 0.0
13/05:20pm 27.6 28.3 16.1 49 7.3 NNE 7 11 4 6 - - 0.0
13/05:10pm 28.0 29.0 16.3 49 7.4 NE 6 13 3 7 - - 0.0
13/05:00pm 28.3 28.7 16.2 47 7.7 NE 9 13 5 7 - - 0.0
13/04:50pm 28.8 29.2 16.3 46 8.0 NE 9 13 5 7 - - 0.0
13/04:40pm 29.5 30.2 16.1 44 8.5 NE 7 11 4 6 - - 0.0
13/04:20pm 30.1 30.4 16.0 42 9.0 NE 9 15 5 8 - - 0.0
13/10:30am 27.7 28.2 15.6 47 7.6 NE 7 11 4 6 - - 0.0
13/10:20am 27.8 28.1 14.4 43 8.3 NE 6 9 3 5 - - 0.0
13/10:00am 26.9 27.1 14.3 46 7.7 NE 6 7 3 4 - - 0.0
13/09:50am 26.4 26.8 14.7 48 7.2 NE 6 9 3 5 - - 0.0
13/09:40am 26.1 26.6 15.1 50 6.8 NNE 6 7 3 4 - - 0.0
13/09:30am 25.6 26.2 15.3 53 6.4 N 6 7 3 4 - - 0.0
13/09:20am 25.0 25.3 15.1 54 6.1 N 7 11 4 6 - - 0.0
13/09:10am 24.5 24.3 14.8 54 5.9 N 9 13 5 7 - - 0.0
13/09:00am 24.5 24.4 14.0 52 6.4 N 7 13 4 7 - - 0.0
13/08:50am 24.2 24.6 15.2 57 5.5 NNE 7 9 4 5 - - 0.0
13/08:40am 23.7 24.3 15.8 61 4.9 NNE 7 9 4 5 - - 0.0
13/08:30am 23.4 24.1 16.0 63 4.6 NNE 7 9 4 5 - - 0.0
13/08:20am 22.9 23.7 15.9 64 4.3 ENE 6 11 3 6 - - 0.0
13/08:10am 22.5 23.3 16.3 68 3.9 NE 7 9 4 5 - - 0.0
13/08:00am 21.8 22.8 16.4 71 3.4 NE 6 9 3 5 - - 0.0
13/07:50am 21.1 21.1 16.3 74 3.0 NE 11 13 6 7 - - 0.0
13/07:40am 20.8 21.2 16.4 76 2.7 NE 9 11 5 6 - - 0.0
13/07:30am 20.4 20.9 16.5 78 2.4 NE 9 15 5 8 - - 0.0
13/07:20am 19.8 20.2 16.4 81 2.1 NE 9 15 5 8 - - 0.0
13/07:10am 19.6 20.5 16.6 83 1.9 NE 7 9 4 5 - - 0.0
13/07:00am 19.3 20.4 16.6 84 1.7 NE 6 7 3 4 - - 0.0
13/06:50am 19.0 20.1 16.5 85 1.5 NNE 6 11 3 6 - - 0.0
13/06:40am 18.6 19.6 16.4 87 1.4 NNE 6 11 3 6 - - 0.0
13/06:30am 18.0 19.4 16.4 90 1.0 NNE 4 7 2 4 - - 0.0
13/06:20am 17.5 18.9 16.3 93 0.7 NE 4 7 2 4 - - 0.0
13/06:10am 17.1 18.7 16.0 93 0.7 NNE 2 4 1 2 - - 0.0
13/06:00am 16.7 18.2 15.8 94 0.5 NNE 2 6 1 3 - - 0.0
13/05:50am 16.4 17.8 15.4 94 0.6 NNE 2 4 1 2 - - 0.0
13/05:40am 16.4 17.7 15.2 93 0.7 NE 2 4 1 2 - - 0.0
13/05:30am 16.6 18.0 15.4 93 0.7 N 2 4 1 2 - - 0.0
13/05:20am 16.7 18.1 15.4 92 0.8 N 2 2 1 1 - - 0.0
13/05:10am 17.0 18.8 15.6 91 0.8 CALM 0 0 0 0 - - 0.0
13/05:00am 17.2 18.7 15.7 91 0.9 N 2 6 1 3 - - 0.0
13/04:50am 17.3 18.8 15.8 91 0.9 NNE 2 4 1 2 - - 0.0
13/04:40am 17.4 18.6 15.8 90 1.0 NNE 4 6 2 3 - - 0.0
13/04:30am 17.3 18.5 15.8 91 0.9 NNE 4 6 2 3 - - 0.0
13/04:20am 17.3 18.8 15.8 91 0.9 N 2 4 1 2 - - 0.0
13/04:10am 17.4 18.9 15.8 90 1.0 NNE 2 6 1 3 - - 0.0
13/04:00am 17.4 18.6 15.8 90 1.0 NNE 4 7 2 4 - - 0.0
13/03:50am 17.4 18.6 15.8 90 1.0 NE 4 7 2 4 - - 0.0
13/03:40am 17.6 18.8 15.8 89 1.1 NNE 4 7 2 4 - - 0.0
13/03:30am 17.6 18.4 15.8 89 1.1 NNE 6 7 3 4 - - 0.0
13/03:20am 17.6 18.8 15.8 89 1.1 NNE 4 6 2 3 - - 0.0
13/03:10am 17.6 18.8 15.8 89 1.1 NNE 4 9 2 5 - - 0.0
13/03:00am 17.6 18.4 15.8 89 1.1 NE 6 9 3 5 - - 0.0
13/02:50am 17.6 18.8 15.8 89 1.1 NNE 4 7 2 4 - - 0.0
13/02:40am 17.6 18.2 15.8 89 1.1 NNE 7 11 4 6 - - 0.0
13/02:30am 17.5 18.7 15.8 90 1.0 NNE 4 6 2 3 - - 0.0
13/02:20am 17.6 18.4 15.9 90 1.0 NNE 6 9 3 5 - - 0.0
13/02:10am 17.7 18.5 15.8 89 1.2 NNE 6 9 3 5 - - 0.0
13/02:00am 17.7 18.5 15.8 89 1.2 NNE 6 7 3 4 - - 0.0
13/01:50am 17.7 18.5 15.8 89 1.2 NNE 6 11 3 6 - - 0.0
13/01:40am 17.7 18.9 15.8 89 1.2 NNE 4 6 2 3 - - 0.0
13/01:30am 17.8 18.4 15.9 89 1.2 NNE 7 9 4 5 - - 0.0
13/01:20am 17.9 18.7 15.8 87 1.3 NNE 6 9 3 5 - - 0.0
13/01:10am 17.9 18.7 15.8 87 1.3 NNE 6 11 3 6 - - 0.0
13/01:00am 17.9 18.7 15.8 87 1.3 NNE 6 11 3 6 - - 0.0
13/12:50am 18.0 18.7 15.7 86 1.4 NNE 6 9 3 5 - - 0.0
13/12:40am 18.0 18.6 15.8 87 1.3 NNE 7 9 4 5 - - 0.0
13/12:30am 18.0 18.3 15.9 87 1.3 NNE 9 11 5 6 - - 0.0
13/12:20am 18.0 18.7 16.0 88 1.2 NNE 7 11 4 6 - - 0.0
13/12:10am 18.0 18.3 16.1 89 1.2 NNE 9 11 5 6 - - 0.0
13/12:00am 18.0 18.3 16.1 89 1.2 NNE 9 13 5 7 - - 0.0
 
Date/Time
EST
Temp
°C
App
Temp
°C
Dew
Point
°C
Rel
Hum
%
Delta-T
°C
Wind Press
QNH
hPa
Press
MSL
hPa
Rain since
9am
mm
Dir  Spd
km/h
Gust
km/h
Spd
kts
Gust
kts
12/11:50pm 18.0 18.7 16.2 89 1.1 NNE 7 11 4 6 - - 0.0
12/11:40pm 18.1 18.8 16.1 88 1.2 NNE 7 13 4 7 - - 0.0
12/11:30pm 18.2 18.9 16.2 88 1.2 NNE 7 9 4 5 - - 0.0
12/11:20pm 18.2 18.6 16.2 88 1.2 NNE 9 11 5 6 - - 0.0
12/11:10pm 18.2 18.5 16.1 87 1.3 NNE 9 11 5 6 - - 0.0

Other formats

Comma delimited format used in spreadsheet applications
http://www.bom.gov.au/fwo/IDQ60801/IDQ60801.99125.axf

JavaScript Object Notation format (JSON) in row-major order
http://www.bom.gov.au/fwo/IDQ60801/IDQ60801.99125.json

Data quality

Most of these data are generated automatically and are frequently updated. Quality checks on data are not normally performed. It is possible for incorrect values to appear. Refer to information at About Latest Weather Observations and please check the disclaimer before using these data.